< < Back
Terminal Aerodrome Forecast


Current Version              Previous Versions:   1  2  3  4  5  6  7  8  9  

Terminal Aerodrome Forecast

536
FTUS42 KGSP 202300
TAFHKY
TAF
KHKY 202337Z 2100/2124 24004KT P6SM SCT060 BKN250
     FM210800 00000KT P6SM SCT250
     FM211800 30004KT P6SM SCT060 PROB30 2118/2123 4SM TSRA
      BKN040CB=



Latest METAR

012
SAUS70 KWBC 210600 RRC
MTRHKY
METAR KHKY 210553Z AUTO 34005KT 10SM CLR 23/18 A3005 RMK AO2 SLP153
T02280178 10267 20228 55015


USA.gov is the U.S. government's official web portal to all federal, state and local government web resources and services.